Time;durP1;ratioP1;P1;durP2;ratioP2;P2;SDS_P1;SDS_P2;PMS_P1;PMS_P2;Temp;Humidity;BMP_temperature;BMP_pressure;BME280_temperature;BME280_humidity;BME280_pressure;Samples;Min_cycle;Max_cycle;Signal;HPM_P1;HPM_P2
2023/01/16 00:01:36;;;;;;;3.50;2.40;;;22.90;56.90;;;;;;221745;1248;25086;-48
2023/01/16 00:06:40;;;;;;;8.70;3.10;;;22.80;57.50;;;;;;221883;1252;25754;-47
2023/01/16 00:11:44;;;;;;;17.40;2.90;;;22.70;57.50;;;;;;221785;1269;22524;-49
2023/01/16 00:16:48;;;;;;;4.90;2.60;;;22.40;57.90;;;;;;222166;1263;22623;-53
2023/01/16 00:21:52;;;;;;;3.30;2.80;;;22.50;57.90;;;;;;222124;1270;24427;-53
2023/01/16 00:26:56;;;;;;;5.80;3.10;;;22.40;57.70;;;;;;221461;1268;22957;-55
2023/01/16 00:32:02;;;;;;;3.10;2.50;;;22.40;57.90;;;;;;221938;1260;22529;-55
2023/01/16 00:37:06;;;;;;;5.40;2.50;;;22.30;57.60;;;;;;221532;1263;22540;-56
2023/01/16 00:42:10;;;;;;;2.90;2.50;;;22.20;57.50;;;;;;229944;1268;22332;-55
2023/01/16 00:47:14;;;;;;;3.20;2.30;;;22.30;57.30;;;;;;229879;1268;22166;-55
2023/01/16 00:52:18;;;;;;;3.70;2.60;;;22.30;56.90;;;;;;223235;1266;27633;-55
2023/01/16 00:57:22;;;;;;;2.70;2.30;;;22.20;56.80;;;;;;221884;1270;22533;-54
2023/01/16 01:02:26;;;;;;;3.70;2.00;;;22.10;57.20;;;;;;229888;1264;22426;-56
2023/01/16 01:07:30;;;;;;;2.50;2.10;;;22.10;57.20;;;;;;225220;1267;22743;-54
2023/01/16 01:12:35;;;;;;;2.30;2.10;;;22.10;57.40;;;;;;221781;1248;25694;-54
2023/01/16 01:17:39;;;;;;;2.90;2.40;;;22.00;57.20;;;;;;229941;1267;22224;-55
2023/01/16 01:22:45;;;;;;;2.90;2.10;;;21.90;57.00;;;;;;229977;1268;22162;-56
2023/01/16 01:27:50;;;;;;;2.20;2.00;;;22.00;56.80;;;;;;226629;1263;24187;-55
2023/01/16 01:32:54;;;;;;;2.60;2.10;;;22.00;56.70;;;;;;221870;1267;24272;-55
2023/01/16 01:37:58;;;;;;;1.70;1.60;;;22.30;57.10;;;;;;222007;1263;25140;-54
2023/01/16 01:43:02;;;;;;;2.00;1.80;;;22.50;56.50;;;;;;221885;1263;22626;-56
2023/01/16 01:48:12;;;;;;;1.70;1.60;;;22.80;55.80;;;;;;221697;1260;26638;-54
2023/01/16 01:53:39;;;;;;;3.70;2.00;;;23.00;55.40;;;;;;221723;1269;22538;-53
2023/01/16 01:58:45;;;;;;;2.10;1.70;;;23.10;55.70;;;;;;222179;1270;25468;-54
2023/01/16 02:03:56;;;;;;;2.40;1.80;;;23.20;55.00;;;;;;221877;1269;24302;-55
2023/01/16 02:09:00;;;;;;;3.20;1.90;;;23.20;55.00;;;;;;229704;1262;197581;-55
2023/01/16 02:14:13;;;;;;;3.10;1.90;;;23.40;54.10;;;;;;229907;1263;22287;-56
2023/01/16 02:19:50;;;;;;;1.60;1.50;;;23.60;54.20;;;;;;227455;1267;22527;-53
2023/01/16 02:25:41;;;;;;;2.30;1.90;;;23.70;53.80;;;;;;221746;1270;25418;-55
2023/01/16 02:31:12;;;;;;;1.70;1.60;;;23.40;54.00;;;;;;221840;1257;24900;-54
2023/01/16 02:36:56;;;;;;;1.90;1.70;;;23.30;54.40;;;;;;221770;1269;23877;-56
2023/01/16 02:42:19;;;;;;;2.00;1.60;;;23.20;54.40;;;;;;222060;1270;24346;-54
2023/01/16 02:47:36;;;;;;;2.00;1.80;;;23.30;54.30;;;;;;221960;1266;22606;-54
2023/01/16 02:53:19;;;;;;;2.20;1.60;;;23.30;54.40;;;;;;222004;1269;25587;-55
2023/01/16 02:58:26;;;;;;;3.00;1.50;;;23.30;54.10;;;;;;221899;1267;25098;-55
2023/01/16 03:03:36;;;;;;;1.70;1.40;;;23.30;54.10;;;;;;221925;1249;22636;-55
2023/01/16 03:09:00;;;;;;;1.90;1.50;;;23.30;54.20;;;;;;222115;1264;22774;-56
2023/01/16 03:14:40;;;;;;;1.90;1.60;;;23.40;54.10;;;;;;221843;1271;25436;-54
2023/01/16 03:19:50;;;;;;;1.90;1.70;;;23.40;54.20;;;;;;221711;1269;22520;-56
2023/01/16 03:25:01;;;;;;;3.40;1.60;;;23.40;54.30;;;;;;222045;1267;22532;-55
2023/01/16 03:30:18;;;;;;;1.80;1.60;;;23.40;54.20;;;;;;221841;1270;25399;-56
2023/01/16 03:35:43;;;;;;;1.70;1.40;;;23.40;53.80;;;;;;221928;1257;24215;-56
2023/01/16 03:40:49;;;;;;;2.30;1.80;;;23.50;53.80;;;;;;221641;1271;22867;-55
2023/01/16 03:46:00;;;;;;;1.50;1.40;;;23.40;53.80;;;;;;222255;1264;22609;-56
2023/01/16 03:51:06;;;;;;;;;;;23.40;54.10;;;;;;221973;1268;22726;-55
2023/01/16 03:56:35;;;;;;;1.90;1.50;;;23.50;53.60;;;;;;222100;1250;24257;-56
2023/01/16 04:01:48;;;;;;;1.40;1.30;;;23.50;53.60;;;;;;221834;1266;22528;-56
2023/01/16 04:07:09;;;;;;;2.10;1.30;;;23.50;53.70;;;;;;221763;1264;25369;-55
2023/01/16 04:12:17;;;;;;;1.30;1.10;;;23.40;54.00;;;;;;221974;1254;22621;-56
2023/01/16 04:17:22;;;;;;;1.30;1.20;;;23.20;54.20;;;;;;222004;1270;22560;-55
2023/01/16 04:22:28;;;;;;;1.40;1.30;;;23.00;54.80;;;;;;221643;1251;26613;-55
2023/01/16 04:27:32;;;;;;;1.40;1.30;;;23.00;54.70;;;;;;221665;1264;22570;-55
2023/01/16 04:32:37;;;;;;;1.90;1.50;;;22.90;55.40;;;;;;221684;1263;22580;-56
2023/01/16 04:37:41;;;;;;;1.40;1.20;;;22.90;54.60;;;;;;221876;1259;24197;-55
2023/01/16 04:42:45;;;;;;;1.20;1.10;;;22.80;55.00;;;;;;221749;1263;22734;-55
2023/01/16 04:47:51;;;;;;;1.20;1.10;;;22.70;55.60;;;;;;222389;1258;22546;-55
2023/01/16 04:52:55;;;;;;;2.30;1.20;;;22.60;55.60;;;;;;221819;1259;22601;-55
2023/01/16 04:57:59;;;;;;;1.30;1.10;;;22.50;55.60;;;;;;221829;1256;24040;-55
2023/01/16 05:03:03;;;;;;;2.30;1.20;;;22.40;55.70;;;;;;221841;1264;23665;-54
2023/01/16 05:08:16;;;;;;;1.10;1.00;;;22.40;55.80;;;;;;221671;1258;22527;-55
2023/01/16 05:13:21;;;;;;;1.00;1.00;;;22.40;56.00;;;;;;221985;1270;22660;-54
2023/01/16 05:18:26;;;;;;;1.50;1.30;;;22.30;55.90;;;;;;221941;1270;25290;-56
2023/01/16 05:23:32;;;;;;;1.30;1.20;;;22.20;56.20;;;;;;221811;1266;24023;-55
2023/01/16 05:28:36;;;;;;;1.00;1.00;;;22.20;56.20;;;;;;221795;1269;25299;-55
2023/01/16 05:33:41;;;;;;;2.00;1.40;;;22.10;56.60;;;;;;222040;1270;23939;-56
2023/01/16 05:38:46;;;;;;;1.20;1.00;;;22.00;56.40;;;;;;222074;1269;24331;-54
2023/01/16 05:43:50;;;;;;;1.10;1.10;;;22.00;56.40;;;;;;221661;1263;22534;-55
2023/01/16 05:48:54;;;;;;;1.70;1.30;;;21.90;56.50;;;;;;222045;1269;22643;-54
2023/01/16 05:53:58;;;;;;;1.30;1.10;;;21.80;56.80;;;;;;222147;1269;22621;-54
2023/01/16 05:59:02;;;;;;;1.50;1.40;;;22.00;56.30;;;;;;222059;1267;22687;-55
2023/01/16 06:04:06;;;;;;;3.50;1.40;;;22.40;55.80;;;;;;221938;1270;25288;-56
2023/01/16 06:09:11;;;;;;;3.10;1.00;;;22.70;54.80;;;;;;221816;1251;22536;-55
2023/01/16 06:14:15;;;;;;;1.40;1.30;;;23.00;54.50;;;;;;221869;1270;24040;-53
2023/01/16 06:19:19;;;;;;;1.10;1.00;;;23.20;54.00;;;;;;222001;1256;25697;-55
2023/01/16 06:24:23;;;;;;;1.10;1.00;;;23.20;53.70;;;;;;221776;1260;22539;-54
2023/01/16 06:29:27;;;;;;;1.50;1.10;;;23.20;53.50;;;;;;221872;1264;22529;-58
2023/01/16 06:34:31;;;;;;;1.50;1.10;;;23.20;53.50;;;;;;221776;1256;24373;-56
2023/01/16 06:39:38;;;;;;;2.00;1.00;;;23.20;53.50;;;;;;221471;1260;25489;-55
2023/01/16 06:44:43;;;;;;;1.00;0.90;;;23.20;53.40;;;;;;221892;1257;22770;-52
2023/01/16 06:49:46;;;;;;;2.60;1.30;;;23.30;53.50;;;;;;221620;1267;25380;-51
2023/01/16 06:54:50;;;;;;;4.20;1.10;;;23.40;53.40;;;;;;221763;1257;22540;-52
2023/01/16 06:59:54;;;;;;;1.40;1.10;;;23.40;53.70;;;;;;222129;1271;22547;-50
2023/01/16 07:04:58;;;;;;;6.60;1.80;;;23.30;53.70;;;;;;221814;1267;23928;-52
2023/01/16 07:10:03;;;;;;;2.60;1.30;;;23.30;54.00;;;;;;221855;1254;23922;-51
2023/01/16 07:26:01;;;;;;;6.90;1.50;;;23.40;54.30;;;;;;221855;1267;22528;-47
2023/01/16 07:31:06;;;;;;;4.50;1.40;;;23.30;54.50;;;;;;222028;1260;22531;-49
2023/01/16 07:36:10;;;;;;;5.90;1.50;;;23.50;54.40;;;;;;221902;1264;24220;-53
2023/01/16 07:41:15;;;;;;;2.50;1.50;;;23.50;54.50;;;;;;221798;1258;23912;-50
2023/01/16 07:46:18;;;;;;;16.30;2.00;;;23.50;54.60;;;;;;222980;1267;24215;-49
2023/01/16 07:51:23;;;;;;;23.10;2.10;;;23.40;55.00;;;;;;222859;1264;24031;-53
2023/01/16 07:56:27;;;;;;;4.70;1.60;;;23.30;54.70;;;;;;221921;1264;22669;-48
2023/01/16 08:01:31;;;;;;;5.20;1.30;;;23.10;54.80;;;;;;221969;1264;22511;-53
2023/01/16 08:06:36;;;;;;;2.20;1.50;;;23.00;55.10;;;;;;222030;1267;22529;-53
2023/01/16 08:11:40;;;;;;;9.20;1.60;;;22.80;55.20;;;;;;222227;1264;24209;-51
2023/01/16 08:16:44;;;;;;;4.50;2.20;;;22.60;54.50;;;;;;226386;1264;22555;-50
2023/01/16 08:21:48;;;;;;;4.20;1.80;;;22.60;54.20;;;;;;222007;1267;24215;-50
2023/01/16 08:26:52;;;;;;;1.40;1.20;;;22.60;54.20;;;;;;221832;1264;22573;-51
2023/01/16 08:31:56;;;;;;;2.50;1.30;;;22.50;54.70;;;;;;221687;1267;23873;-50
2023/01/16 08:37:02;;;;;;;5.50;2.00;;;22.40;54.40;;;;;;221719;1267;25008;-53
2023/01/16 08:52:52;;;;;;;5.40;1.30;;;22.50;53.80;;;;;;222066;1246;24218;-51
2023/01/16 08:57:58;;;;;;;3.80;1.20;;;22.30;53.90;;;;;;222016;1270;24958;-50
2023/01/16 09:03:03;;;;;;;4.30;1.60;;;22.30;54.00;;;;;;221860;1270;22531;-52
2023/01/16 09:08:07;;;;;;;1.70;1.40;;;22.30;54.10;;;;;;221697;1248;25118;-51
2023/01/16 09:18:36;;;;;;;3.10;1.50;;;22.20;54.10;;;;;;221750;1264;22653;-51
2023/01/16 09:23:40;;;;;;;2.80;1.50;;;22.30;54.00;;;;;;222016;1268;23166;-51
2023/01/16 09:28:44;;;;;;;2.70;1.20;;;22.20;54.00;;;;;;221927;1267;22839;-52
2023/01/16 09:33:49;;;;;;;1.70;1.50;;;22.30;53.90;;;;;;221756;1259;22561;-52
2023/01/16 09:38:53;;;;;;;1.80;1.50;;;22.20;53.80;;;;;;221986;1263;22530;-52
2023/01/16 09:43:57;;;;;;;2.80;1.40;;;22.20;54.10;;;;;;221756;1264;22535;-50
2023/01/16 09:49:20;;;;;;;2.00;1.60;;;22.20;53.70;;;;;;221950;1257;22580;-51
2023/01/16 10:00:05;;;;;;;2.80;1.50;;;22.10;55.00;;;;;;221946;1270;22554;-56
2023/01/16 10:05:13;;;;;;;4.50;1.40;;;22.00;55.90;;;;;;221661;1253;24238;-56
2023/01/16 10:11:02;;;;;;;2.30;1.60;;;22.10;56.20;;;;;;221639;1263;24427;-57
2023/01/16 10:16:23;;;;;;;6.10;1.60;;;22.00;57.00;;;;;;220837;1254;24225;-60
2023/01/16 10:21:38;;;;;;;1.60;1.50;;;22.00;57.20;;;;;;220807;1270;25380;-52
2023/01/16 10:27:00;;;;;;;3.30;1.30;;;22.10;58.10;;;;;;220981;1270;23141;-51
2023/01/16 10:32:27;;;;;;;;;;;22.00;58.00;;;;;;220907;1270;24221;-50
2023/01/16 10:37:35;;;;;;;2.80;1.40;;;22.00;58.40;;;;;;220645;1267;22593;-52
2023/01/16 10:53:36;;;;;;;1.80;1.30;;;22.00;58.90;;;;;;221602;1266;24198;-50
2023/01/16 10:58:41;;;;;;;2.30;1.50;;;22.00;59.10;;;;;;221894;1262;22611;-49
2023/01/16 11:04:00;;;;;;;2.70;1.50;;;22.00;59.10;;;;;;221871;1264;25246;-53
2023/01/16 11:09:16;;;;;;;3.40;1.40;;;22.00;59.50;;;;;;221784;1267;22526;-51
2023/01/16 11:19:58;;;;;;;1.90;1.60;;;22.00;59.90;;;;;;221848;1262;25435;-52
2023/01/16 11:25:04;;;;;;;2.20;1.40;;;22.00;60.20;;;;;;222518;1263;22537;-51
2023/01/16 11:30:21;;;;;;;1.50;1.20;;;22.10;60.20;;;;;;222154;1265;26958;-51
2023/01/16 11:35:32;;;;;;;3.30;2.00;;;22.10;60.20;;;;;;222012;1263;25300;-52
2023/01/16 11:40:43;;;;;;;2.40;1.40;;;22.10;60.30;;;;;;222398;1266;25252;-51
2023/01/16 11:46:04;;;;;;;2.50;1.70;;;22.10;60.20;;;;;;221877;1259;22543;-54
2023/01/16 11:51:16;;;;;;;5.80;1.50;;;22.30;59.80;;;;;;221923;1259;22551;-54
2023/01/16 11:56:39;;;;;;;3.00;1.70;;;22.40;60.20;;;;;;222048;1263;22895;-53
2023/01/16 12:02:21;;;;;;;2.00;1.40;;;22.30;61.20;;;;;;222023;1263;24221;-50
2023/01/16 12:07:32;;;;;;;3.10;1.50;;;22.20;60.50;;;;;;221892;1260;22736;-51
2023/01/16 12:18:23;;;;;;;3.70;1.90;;;22.10;63.10;;;;;;221727;1248;25086;-51
2023/01/16 12:24:04;;;;;;;5.40;1.90;;;22.00;63.10;;;;;;221677;1260;25383;-50
2023/01/16 12:29:20;;;;;;;4.00;1.90;;;22.00;63.30;;;;;;220732;1272;23999;-50
2023/01/16 12:34:48;;;;;;;3.90;1.80;;;22.10;63.40;;;;;;220900;1272;22612;-52
2023/01/16 12:40:17;;;;;;;5.20;2.50;;;22.10;63.80;;;;;;220787;1278;22618;-51
2023/01/16 12:45:28;;;;;;;5.40;2.00;;;22.10;64.40;;;;;;220917;1275;22545;-53
2023/01/16 12:51:13;;;;;;;4.90;2.10;;;22.10;63.90;;;;;;221374;1278;22567;-52
2023/01/16 12:56:39;;;;;;;4.20;2.20;;;22.10;64.70;;;;;;219880;1280;24267;-52
2023/01/16 13:01:48;;;;;;;12.50;5.70;;;22.00;64.30;;;;;;219741;1277;24023;-53
2023/01/16 13:06:56;;;;;;;9.50;4.70;;;22.10;65.10;;;;;;220613;1273;23644;-52
2023/01/16 13:18:05;;;;;;;9.80;3.60;;;22.20;66.70;;;;;;220906;1262;22664;-50
2023/01/16 13:23:30;;;;;;;7.80;3.60;;;22.10;66.30;;;;;;220878;1264;24057;-51
2023/01/16 13:28:52;;;;;;;5.90;3.50;;;22.00;66.40;;;;;;221054;1263;22609;-49
2023/01/16 13:34:09;;;;;;;9.80;3.50;;;22.00;66.60;;;;;;221712;1255;24993;-52
2023/01/16 13:39:38;;;;;;;8.30;3.40;;;21.90;66.30;;;;;;221927;1260;22628;-52
2023/01/16 13:50:31;;;;;;;6.50;3.30;;;21.80;66.40;;;;;;221876;1256;25542;-53
2023/01/16 13:55:40;;;;;;;6.80;3.00;;;21.80;66.30;;;;;;221771;1269;24722;-54
2023/01/16 14:00:44;;;;;;;5.90;3.40;;;21.90;65.10;;;;;;221657;1269;22671;-53
2023/01/16 14:06:12;;;;;;;5.60;2.90;;;22.00;65.00;;;;;;221745;1257;22653;-52
2023/01/16 14:11:33;;;;;;;4.10;2.80;;;21.90;65.10;;;;;;221806;1263;251737;-52
2023/01/16 14:16:38;;;;;;;5.20;3.20;;;21.80;65.00;;;;;;229659;1260;24328;-52
2023/01/16 14:27:12;;;;;;;5.00;2.90;;;22.00;63.80;;;;;;221669;1259;24034;-51
2023/01/16 14:32:19;;;;;;;4.70;2.90;;;21.80;64.40;;;;;;221850;1261;24343;-50
2023/01/16 14:37:31;;;;;;;7.50;3.10;;;21.70;64.50;;;;;;221738;1263;22722;-51
2023/01/16 14:59:07;;;;;;;5.10;3.30;;;21.50;65.30;;;;;;221895;1256;22543;-53
2023/01/16 15:04:15;;;;;;;4.50;2.80;;;21.50;65.80;;;;;;221857;1269;22646;-53
2023/01/16 15:09:20;;;;;;;6.20;2.70;;;21.90;64.60;;;;;;221891;1259;22693;-51
2023/01/16 15:14:32;;;;;;;5.80;3.20;;;22.10;63.70;;;;;;222116;1270;22578;-53
2023/01/16 15:25:14;;;;;;;4.00;2.40;;;22.50;63.10;;;;;;222067;1263;22705;-52
2023/01/16 15:30:18;;;;;;;6.80;2.30;;;22.50;64.30;;;;;;221764;1250;24394;-53
2023/01/16 15:35:22;;;;;;;5.80;2.30;;;22.60;63.80;;;;;;221801;1262;22654;-53
2023/01/16 15:40:29;;;;;;;5.30;2.70;;;22.60;64.00;;;;;;221609;1259;22592;-52
2023/01/16 15:51:01;;;;;;;4.30;2.70;;;22.70;63.70;;;;;;221949;1257;25187;-50
2023/01/16 15:56:14;;;;;;;4.10;2.50;;;22.70;63.20;;;;;;221660;1263;25474;-52
2023/01/16 16:01:30;;;;;;;7.00;3.00;;;22.70;62.50;;;;;;225748;1259;23916;-52
2023/01/16 16:06:38;;;;;;;4.00;2.70;;;22.80;61.50;;;;;;221965;1257;25275;-51
2023/01/16 16:11:51;;;;;;;4.00;2.80;;;22.90;61.40;;;;;;225742;1260;22639;-53
2023/01/16 16:22:47;;;;;;;4.00;2.90;;;23.10;61.20;;;;;;222327;1253;23911;-55
2023/01/16 16:27:52;;;;;;;3.80;2.40;;;23.20;61.00;;;;;;229810;1247;22510;-54
2023/01/16 16:32:56;;;;;;;3.10;2.50;;;23.30;60.60;;;;;;221964;1255;22536;-50
2023/01/16 16:38:01;;;;;;;5.60;3.20;;;23.30;60.20;;;;;;221849;1263;24187;-53
2023/01/16 16:43:07;;;;;;;2.80;2.50;;;23.30;60.40;;;;;;221462;1262;22556;-55
2023/01/16 16:48:13;;;;;;;3.60;2.60;;;23.30;60.90;;;;;;221766;1270;23914;-55
2023/01/16 16:53:26;;;;;;;4.10;3.00;;;23.30;61.00;;;;;;221610;1254;23915;-52
2023/01/16 16:58:30;;;;;;;6.00;2.90;;;23.20;61.00;;;;;;221915;1256;22719;-52
2023/01/16 17:03:34;;;;;;;6.80;3.10;;;23.30;60.80;;;;;;222786;1262;22774;-53
2023/01/16 17:08:39;;;;;;;6.40;3.40;;;23.30;60.10;;;;;;221802;1266;24218;-56
2023/01/16 17:13:43;;;;;;;4.70;3.30;;;23.20;60.40;;;;;;221938;1256;24202;-52
2023/01/16 17:18:52;;;;;;;3.10;2.80;;;23.10;60.90;;;;;;221939;1263;25885;-52
2023/01/16 17:23:56;;;;;;;5.30;3.50;;;22.90;62.00;;;;;;221789;1264;23887;-48
2023/01/16 17:29:01;;;;;;;12.50;3.70;;;22.80;62.30;;;;;;221983;1263;23874;-54
2023/01/16 17:34:13;;;;;;;4.80;3.00;;;22.70;62.40;;;;;;221968;1263;22984;-47
2023/01/16 17:39:16;;;;;;;4.00;3.20;;;22.70;62.10;;;;;;221795;1263;23438;-51
2023/01/16 18:00:34;;;;;;;4.20;3.50;;;22.70;62.50;;;;;;221892;1263;22573;-49
2023/01/16 18:05:40;;;;;;;4.50;3.80;;;22.50;62.60;;;;;;221990;1263;24100;-50
2023/01/16 18:10:45;;;;;;;3.30;2.90;;;22.50;62.70;;;;;;221813;1264;24209;-49
2023/01/16 18:17:21;;;;;;;5.70;3.60;;;22.40;63.00;;;;;;222387;1266;25707;-51
2023/01/16 18:27:07;;;;;;;4.50;4.10;;;22.10;63.60;;;;;;222138;1264;23958;-54
2023/01/16 18:32:22;;;;;;;7.20;4.00;;;22.20;63.70;;;;;;222579;1259;24359;-48
2023/01/16 18:37:32;;;;;;;4.50;3.50;;;22.10;63.30;;;;;;221622;1264;23906;-50
2023/01/16 19:04:22;;;;;;;9.10;4.10;;;21.80;63.60;;;;;;221734;1266;22555;-49
2023/01/16 19:09:30;;;;;;;15.50;11.30;;;21.90;62.00;;;;;;221975;1262;22517;-49
2023/01/16 19:14:38;;;;;;;16.70;12.70;;;21.90;62.40;;;;;;222079;1266;22691;-49
2023/01/16 19:19:45;;;;;;;18.00;12.60;;;21.80;62.00;;;;;;222109;1262;24208;-50
2023/01/16 19:24:51;;;;;;;16.90;11.40;;;21.80;62.00;;;;;;222180;1263;26536;-51
2023/01/16 19:29:57;;;;;;;14.20;11.10;;;21.70;61.60;;;;;;222198;1263;24155;-51
2023/01/16 19:35:03;;;;;;;15.20;10.90;;;21.80;61.80;;;;;;222170;1263;22546;-48
2023/01/16 19:40:11;;;;;;;16.20;11.10;;;21.70;62.60;;;;;;221905;1260;25345;-48
2023/01/16 19:50:41;;;;;;;18.90;9.60;;;21.80;61.40;;;;;;222018;1268;25322;-49
2023/01/16 19:55:47;;;;;;;22.90;9.50;;;21.70;63.50;;;;;;221882;1270;23592;-49
2023/01/16 20:00:53;;;;;;;30.60;9.80;;;21.70;63.80;;;;;;221738;1269;22889;-49
2023/01/16 20:06:08;;;;;;;21.50;9.10;;;21.70;64.10;;;;;;222002;1270;22541;-50
2023/01/16 20:11:16;;;;;;;18.90;8.90;;;21.50;64.10;;;;;;222001;1266;24031;-48
2023/01/16 20:16:21;;;;;;;15.40;8.40;;;21.60;63.80;;;;;;221694;1257;22527;-52
2023/01/16 20:21:27;;;;;;;19.70;9.40;;;21.50;63.60;;;;;;221863;1267;22992;-51
2023/01/16 20:26:34;;;;;;;17.80;8.30;;;21.50;63.80;;;;;;222005;1267;22715;-52
2023/01/16 20:31:41;;;;;;;16.20;8.80;;;21.50;64.80;;;;;;221927;1269;23986;-50
2023/01/16 20:36:49;;;;;;;10.70;7.50;;;22.10;63.40;;;;;;221993;1266;24381;-49
2023/01/16 20:47:19;;;;;;;11.60;6.80;;;22.70;62.40;;;;;;222129;1268;25229;-49
2023/01/16 20:52:26;;;;;;;12.30;7.50;;;22.90;61.70;;;;;;221995;1266;24030;-49
2023/01/16 20:57:31;;;;;;;11.10;6.70;;;23.00;61.00;;;;;;221892;1255;22747;-51
2023/01/16 21:02:37;;;;;;;17.80;7.30;;;22.80;61.30;;;;;;222133;1269;24212;-47
2023/01/16 21:07:43;;;;;;;18.00;6.70;;;22.80;61.80;;;;;;221857;1263;22670;-49
2023/01/16 21:23:35;;;;;;;16.20;7.50;;;22.90;64.50;;;;;;222060;1260;22537;-60
2023/01/16 21:28:40;;;;;;;14.20;6.40;;;22.80;64.20;;;;;;225542;1256;25357;-58
2023/01/16 21:33:44;;;;;;;10.90;6.70;;;22.90;63.00;;;;;;222503;1263;22554;-59
2023/01/16 21:38:48;;;;;;;11.40;6.40;;;22.90;64.00;;;;;;221743;1263;25488;-59
2023/01/16 21:49:16;;;;;;;14.20;6.60;;;23.00;63.10;;;;;;221772;1263;24773;-58
2023/01/16 21:54:20;;;;;;;12.00;6.10;;;23.10;62.20;;;;;;221857;1263;22530;-60
2023/01/16 21:59:25;;;;;;;9.00;5.70;;;23.20;61.10;;;;;;221897;1257;22543;-59
2023/01/16 22:04:29;;;;;;;10.80;6.40;;;23.20;61.40;;;;;;221784;1248;24762;-59
2023/01/16 22:09:33;;;;;;;10.20;6.40;;;23.30;61.00;;;;;;221943;1269;25749;-60
2023/01/16 22:25:29;;;;;;;15.70;6.40;;;23.40;63.90;;;;;;221879;1269;22528;-59
2023/01/16 22:30:32;;;;;;;9.20;5.70;;;23.40;64.00;;;;;;221735;1254;22544;-59
2023/01/16 22:35:37;;;;;;;7.30;6.00;;;23.30;63.90;;;;;;221859;1254;22867;-58
2023/01/16 22:40:41;;;;;;;9.40;6.40;;;23.20;64.30;;;;;;222504;1260;24196;-57
2023/01/16 22:51:10;;;;;;;11.30;6.80;;;23.20;64.30;;;;;;221676;1263;25319;-59
2023/01/16 22:56:14;;;;;;;7.80;6.00;;;23.10;64.60;;;;;;221879;1256;22524;-59
2023/01/16 23:01:22;;;;;;;9.30;6.10;;;23.10;64.20;;;;;;221672;1270;22527;-59
2023/01/16 23:06:26;;;;;;;12.20;6.60;;;23.10;64.30;;;;;;221646;1269;22646;-57
2023/01/16 23:11:36;;;;;;;7.10;6.20;;;23.10;64.30;;;;;;222447;1260;22617;-58
2023/01/16 23:16:41;;;;;;;8.00;6.30;;;23.00;64.20;;;;;;221702;1260;22586;-58
2023/01/16 23:21:45;;;;;;;7.40;6.20;;;23.00;64.30;;;;;;221867;1260;23873;-58
2023/01/16 23:26:51;;;;;;;7.40;6.40;;;22.90;64.50;;;;;;221823;1269;25117;-59
2023/01/16 23:31:55;;;;;;;11.60;7.10;;;22.90;64.60;;;;;;223590;1266;23875;-53
2023/01/16 23:36:59;;;;;;;8.20;7.30;;;22.90;65.10;;;;;;222362;1269;25478;-57
2023/01/16 23:47:30;;;;;;;8.90;6.90;;;22.80;64.60;;;;;;221793;1269;22531;-57
2023/01/16 23:52:34;;;;;;;7.80;6.80;;;22.60;64.50;;;;;;221709;1257;22896;-59
2023/01/16 23:57:38;;;;;;;8.80;6.90;;;22.60;64.50;;;;;;221744;1246;24206;-58
